sensor_id;sensor_type;location;lat;lon;timestamp;temperature;humidity
18191;DHT22;47004;51.366;12.348;2022-09-09T00:00:53;14.90;99.90
18191;DHT22;47004;51.366;12.348;2022-09-09T00:03:02;14.90;99.90
18191;DHT22;47004;51.366;12.348;2022-09-09T00:05:18;14.80;99.90
18191;DHT22;47004;51.366;12.348;2022-09-09T00:07:28;14.80;99.90
18191;DHT22;47004;51.366;12.348;2022-09-09T00:09:39;14.80;99.90
18191;DHT22;47004;51.366;12.348;2022-09-09T00:11:46;14.80;99.90
18191;DHT22;47004;51.366;12.348;2022-09-09T00:13:51;14.80;99.90
18191;DHT22;47004;51.366;12.348;2022-09-09T00:15:59;14.80;99.90
18191;DHT22;47004;51.366;12.348;2022-09-09T00:18:10;14.70;99.90
18191;DHT22;47004;51.366;12.348;2022-09-09T00:20:20;14.70;99.90
18191;DHT22;47004;51.366;12.348;2022-09-09T00:22:29;14.70;99.90
18191;DHT22;47004;51.366;12.348;2022-09-09T00:24:40;14.70;99.90
18191;DHT22;47004;51.366;12.348;2022-09-09T00:26:48;14.70;99.90
18191;DHT22;47004;51.366;12.348;2022-09-09T00:28:57;14.70;99.90
18191;DHT22;47004;51.366;12.348;2022-09-09T00:31:11;14.70;99.90
18191;DHT22;47004;51.366;12.348;2022-09-09T00:33:14;14.60;99.90
18191;DHT22;47004;51.366;12.348;2022-09-09T00:35:21;14.60;99.90
18191;DHT22;47004;51.366;12.348;2022-09-09T00:37:25;14.60;99.90
18191;DHT22;47004;51.366;12.348;2022-09-09T00:39:34;14.60;99.90
18191;DHT22;47004;51.366;12.348;2022-09-09T00:41:49;14.60;99.90
18191;DHT22;47004;51.366;12.348;2022-09-09T00:43:56;14.60;99.90
18191;DHT22;47004;51.366;12.348;2022-09-09T00:46:15;14.60;99.90
18191;DHT22;47004;51.366;12.348;2022-09-09T00:48:27;14.60;99.90
18191;DHT22;47004;51.366;12.348;2022-09-09T00:50:42;14.60;99.90
18191;DHT22;47004;51.366;12.348;2022-09-09T00:52:54;14.60;99.90
18191;DHT22;47004;51.366;12.348;2022-09-09T00:55:07;14.60;99.90
18191;DHT22;47004;51.366;12.348;2022-09-09T00:57:23;14.60;99.90
18191;DHT22;47004;51.366;12.348;2022-09-09T00:59:32;14.60;99.90
18191;DHT22;47004;51.366;12.348;2022-09-09T01:01:39;14.50;99.90
18191;DHT22;47004;51.366;12.348;2022-09-09T01:03:46;14.50;99.90
18191;DHT22;47004;51.366;12.348;2022-09-09T01:05:59;14.50;99.90
18191;DHT22;47004;51.366;12.348;2022-09-09T01:08:09;14.50;99.90
18191;DHT22;47004;51.366;12.348;2022-09-09T01:10:23;14.50;99.90
18191;DHT22;47004;51.366;12.348;2022-09-09T01:12:34;14.50;99.90
18191;DHT22;47004;51.366;12.348;2022-09-09T01:14:43;14.40;99.90
18191;DHT22;47004;51.366;12.348;2022-09-09T01:16:48;14.40;99.90
18191;DHT22;47004;51.366;12.348;2022-09-09T01:18:52;14.40;99.90
18191;DHT22;47004;51.366;12.348;2022-09-09T01:21:01;14.40;99.90
18191;DHT22;47004;51.366;12.348;2022-09-09T01:26:04;14.40;99.90
18191;DHT22;47004;51.366;12.348;2022-09-09T01:28:12;14.30;99.90
18191;DHT22;47004;51.366;12.348;2022-09-09T01:30:17;14.30;99.90
18191;DHT22;47004;51.366;12.348;2022-09-09T01:32:41;14.30;99.90
18191;DHT22;47004;51.366;12.348;2022-09-09T01:34:44;14.30;99.90
18191;DHT22;47004;51.366;12.348;2022-09-09T01:36:52;14.30;99.90
18191;DHT22;47004;51.366;12.348;2022-09-09T01:38:55;14.30;99.90
18191;DHT22;47004;51.366;12.348;2022-09-09T01:40:57;14.30;99.90
18191;DHT22;47004;51.366;12.348;2022-09-09T01:43:00;14.30;99.90
18191;DHT22;47004;51.366;12.348;2022-09-09T01:45:04;14.30;99.90
18191;DHT22;47004;51.366;12.348;2022-09-09T01:47:07;14.30;99.90
18191;DHT22;47004;51.366;12.348;2022-09-09T01:49:09;14.20;99.90
18191;DHT22;47004;51.366;12.348;2022-09-09T01:51:12;14.20;99.90
18191;DHT22;47004;51.366;12.348;2022-09-09T01:53:14;14.20;99.90
18191;DHT22;47004;51.366;12.348;2022-09-09T01:55:20;14.20;99.90
18191;DHT22;47004;51.366;12.348;2022-09-09T01:57:33;14.20;99.90
18191;DHT22;47004;51.366;12.348;2022-09-09T01:59:49;14.20;99.90
18191;DHT22;47004;51.366;12.348;2022-09-09T02:02:03;14.20;99.90
18191;DHT22;47004;51.366;12.348;2022-09-09T02:04:17;14.20;99.90
18191;DHT22;47004;51.366;12.348;2022-09-09T02:06:27;14.20;99.90
18191;DHT22;47004;51.366;12.348;2022-09-09T02:08:36;14.20;99.90
18191;DHT22;47004;51.366;12.348;2022-09-09T02:10:45;14.10;99.90
18191;DHT22;47004;51.366;12.348;2022-09-09T02:12:51;14.20;99.90
18191;DHT22;47004;51.366;12.348;2022-09-09T02:15:02;14.10;99.90
18191;DHT22;47004;51.366;12.348;2022-09-09T02:17:09;14.10;99.90
18191;DHT22;47004;51.366;12.348;2022-09-09T02:19:14;14.10;99.90
18191;DHT22;47004;51.366;12.348;2022-09-09T02:21:22;14.10;99.90
18191;DHT22;47004;51.366;12.348;2022-09-09T02:23:25;14.10;99.90
18191;DHT22;47004;51.366;12.348;2022-09-09T02:25:29;14.10;99.90
18191;DHT22;47004;51.366;12.348;2022-09-09T02:27:31;14.10;99.90
18191;DHT22;47004;51.366;12.348;2022-09-09T02:29:36;14.10;99.90
18191;DHT22;47004;51.366;12.348;2022-09-09T02:31:42;14.10;99.90
18191;DHT22;47004;51.366;12.348;2022-09-09T02:33:50;14.10;99.90
18191;DHT22;47004;51.366;12.348;2022-09-09T02:35:54;14.10;99.90
18191;DHT22;47004;51.366;12.348;2022-09-09T02:38:05;14.10;99.90
18191;DHT22;47004;51.366;12.348;2022-09-09T02:40:11;14.10;99.90
18191;DHT22;47004;51.366;12.348;2022-09-09T02:42:13;14.00;99.90
18191;DHT22;47004;51.366;12.348;2022-09-09T02:44:17;14.00;99.90
18191;DHT22;47004;51.366;12.348;2022-09-09T02:46:36;14.00;99.90
18191;DHT22;47004;51.366;12.348;2022-09-09T02:48:47;14.00;99.90
18191;DHT22;47004;51.366;12.348;2022-09-09T02:50:56;14.00;99.90
18191;DHT22;47004;51.366;12.348;2022-09-09T02:53:07;14.00;99.90
18191;DHT22;47004;51.366;12.348;2022-09-09T02:55:17;14.00;99.90
18191;DHT22;47004;51.366;12.348;2022-09-09T02:57:25;14.00;99.90
18191;DHT22;47004;51.366;12.348;2022-09-09T02:59:29;14.00;99.90
18191;DHT22;47004;51.366;12.348;2022-09-09T03:01:31;14.10;99.90
18191;DHT22;47004;51.366;12.348;2022-09-09T03:03:33;14.00;99.90
18191;DHT22;47004;51.366;12.348;2022-09-09T03:05:37;14.00;99.90
18191;DHT22;47004;51.366;12.348;2022-09-09T03:07:39;14.00;99.90
18191;DHT22;47004;51.366;12.348;2022-09-09T03:09:41;13.90;99.90
18191;DHT22;47004;51.366;12.348;2022-09-09T03:11:43;13.90;99.90
18191;DHT22;47004;51.366;12.348;2022-09-09T03:13:45;13.90;99.90
18191;DHT22;47004;51.366;12.348;2022-09-09T03:15:47;13.90;99.90
18191;DHT22;47004;51.366;12.348;2022-09-09T03:17:52;13.90;99.90
18191;DHT22;47004;51.366;12.348;2022-09-09T03:19:55;13.90;99.90
18191;DHT22;47004;51.366;12.348;2022-09-09T03:21:59;13.90;99.90
18191;DHT22;47004;51.366;12.348;2022-09-09T03:24:02;13.90;99.90
18191;DHT22;47004;51.366;12.348;2022-09-09T03:26:04;13.90;99.90
18191;DHT22;47004;51.366;12.348;2022-09-09T03:28:06;13.90;99.90
18191;DHT22;47004;51.366;12.348;2022-09-09T03:30:09;13.90;99.90
18191;DHT22;47004;51.366;12.348;2022-09-09T03:32:11;13.90;99.90
18191;DHT22;47004;51.366;12.348;2022-09-09T03:34:13;13.90;99.90
18191;DHT22;47004;51.366;12.348;2022-09-09T03:36:15;13.80;99.90
18191;DHT22;47004;51.366;12.348;2022-09-09T03:38:18;13.90;99.90
18191;DHT22;47004;51.366;12.348;2022-09-09T03:40:20;13.80;99.90
18191;DHT22;47004;51.366;12.348;2022-09-09T03:42:22;13.80;99.90
18191;DHT22;47004;51.366;12.348;2022-09-09T03:44:24;13.80;99.90
18191;DHT22;47004;51.366;12.348;2022-09-09T03:46:26;13.80;99.90
18191;DHT22;47004;51.366;12.348;2022-09-09T03:48:28;13.80;99.90
18191;DHT22;47004;51.366;12.348;2022-09-09T03:50:30;13.80;99.90
18191;DHT22;47004;51.366;12.348;2022-09-09T03:52:34;13.80;99.90
18191;DHT22;47004;51.366;12.348;2022-09-09T03:54:38;13.80;99.90
18191;DHT22;47004;51.366;12.348;2022-09-09T03:56:43;13.80;99.90
18191;DHT22;47004;51.366;12.348;2022-09-09T03:58:44;13.80;99.90
18191;DHT22;47004;51.366;12.348;2022-09-09T04:00:53;13.80;99.90
18191;DHT22;47004;51.366;12.348;2022-09-09T04:02:55;13.80;99.90
18191;DHT22;47004;51.366;12.348;2022-09-09T04:04:58;13.80;99.90
18191;DHT22;47004;51.366;12.348;2022-09-09T04:07:00;13.70;99.90
18191;DHT22;47004;51.366;12.348;2022-09-09T04:09:02;13.70;99.90
18191;DHT22;47004;51.366;12.348;2022-09-09T04:11:05;13.70;99.90
18191;DHT22;47004;51.366;12.348;2022-09-09T04:13:07;13.70;99.90
18191;DHT22;47004;51.366;12.348;2022-09-09T04:15:10;13.70;99.90
18191;DHT22;47004;51.366;12.348;2022-09-09T04:17:12;13.70;99.90
18191;DHT22;47004;51.366;12.348;2022-09-09T04:19:13;13.70;99.90
18191;DHT22;47004;51.366;12.348;2022-09-09T04:21:16;13.70;99.90
18191;DHT22;47004;51.366;12.348;2022-09-09T04:23:18;13.70;99.90
18191;DHT22;47004;51.366;12.348;2022-09-09T04:25:20;13.70;99.90
18191;DHT22;47004;51.366;12.348;2022-09-09T04:27:24;13.70;99.90
18191;DHT22;47004;51.366;12.348;2022-09-09T04:29:25;13.70;99.90
18191;DHT22;47004;51.366;12.348;2022-09-09T04:31:27;13.70;99.90
18191;DHT22;47004;51.366;12.348;2022-09-09T04:33:29;13.70;99.90
18191;DHT22;47004;51.366;12.348;2022-09-09T04:35:32;13.70;99.90
18191;DHT22;47004;51.366;12.348;2022-09-09T04:37:34;13.70;99.90
18191;DHT22;47004;51.366;12.348;2022-09-09T04:39:36;13.70;99.90
18191;DHT22;47004;51.366;12.348;2022-09-09T04:41:37;13.60;99.90
18191;DHT22;47004;51.366;12.348;2022-09-09T04:43:41;13.70;99.90
18191;DHT22;47004;51.366;12.348;2022-09-09T04:45:43;13.70;99.90
18191;DHT22;47004;51.366;12.348;2022-09-09T04:47:45;13.70;99.90
18191;DHT22;47004;51.366;12.348;2022-09-09T04:49:47;13.70;99.90
18191;DHT22;47004;51.366;12.348;2022-09-09T04:51:49;13.70;99.90
18191;DHT22;47004;51.366;12.348;2022-09-09T04:53:51;13.70;99.90
18191;DHT22;47004;51.366;12.348;2022-09-09T04:56:01;13.70;99.90
18191;DHT22;47004;51.366;12.348;2022-09-09T04:58:04;13.70;99.90
18191;DHT22;47004;51.366;12.348;2022-09-09T05:00:09;13.70;99.90
18191;DHT22;47004;51.366;12.348;2022-09-09T05:02:11;13.70;99.90
18191;DHT22;47004;51.366;12.348;2022-09-09T05:04:13;13.70;99.90
18191;DHT22;47004;51.366;12.348;2022-09-09T05:06:17;13.70;99.90
18191;DHT22;47004;51.366;12.348;2022-09-09T05:08:19;13.70;99.90
18191;DHT22;47004;51.366;12.348;2022-09-09T05:10:21;13.70;99.90
18191;DHT22;47004;51.366;12.348;2022-09-09T05:12:24;13.90;99.90
18191;DHT22;47004;51.366;12.348;2022-09-09T05:14:27;13.70;99.90
18191;DHT22;47004;51.366;12.348;2022-09-09T05:16:31;13.80;99.90
18191;DHT22;47004;51.366;12.348;2022-09-09T05:18:33;13.70;99.90
18191;DHT22;47004;51.366;12.348;2022-09-09T05:20:35;13.80;99.90
18191;DHT22;47004;51.366;12.348;2022-09-09T05:22:37;13.80;99.90
18191;DHT22;47004;51.366;12.348;2022-09-09T05:24:39;13.80;99.90
18191;DHT22;47004;51.366;12.348;2022-09-09T05:26:41;13.80;99.90
18191;DHT22;47004;51.366;12.348;2022-09-09T05:28:43;13.90;99.90
18191;DHT22;47004;51.366;12.348;2022-09-09T05:30:46;13.90;99.90
18191;DHT22;47004;51.366;12.348;2022-09-09T05:32:49;13.90;99.90
18191;DHT22;47004;51.366;12.348;2022-09-09T05:34:52;14.00;99.90
18191;DHT22;47004;51.366;12.348;2022-09-09T05:36:54;14.00;99.90
18191;DHT22;47004;51.366;12.348;2022-09-09T05:38:56;14.00;99.90
18191;DHT22;47004;51.366;12.348;2022-09-09T05:40:58;14.10;99.90
18191;DHT22;47004;51.366;12.348;2022-09-09T05:43:00;14.10;99.90
18191;DHT22;47004;51.366;12.348;2022-09-09T05:45:04;14.10;99.90
18191;DHT22;47004;51.366;12.348;2022-09-09T05:47:06;14.10;99.90
18191;DHT22;47004;51.366;12.348;2022-09-09T05:49:10;14.20;99.90
18191;DHT22;47004;51.366;12.348;2022-09-09T05:51:13;14.20;99.90
18191;DHT22;47004;51.366;12.348;2022-09-09T05:53:17;14.20;99.90
18191;DHT22;47004;51.366;12.348;2022-09-09T05:55:19;14.30;99.90
18191;DHT22;47004;51.366;12.348;2022-09-09T05:57:21;14.20;99.90
18191;DHT22;47004;51.366;12.348;2022-09-09T05:59:23;14.30;99.90
18191;DHT22;47004;51.366;12.348;2022-09-09T06:01:26;14.30;99.90
18191;DHT22;47004;51.366;12.348;2022-09-09T06:03:29;14.40;99.90
18191;DHT22;47004;51.366;12.348;2022-09-09T06:05:32;14.40;99.90
18191;DHT22;47004;51.366;12.348;2022-09-09T06:07:35;14.40;99.90
18191;DHT22;47004;51.366;12.348;2022-09-09T06:09:38;14.50;99.90
18191;DHT22;47004;51.366;12.348;2022-09-09T06:11:40;14.50;99.90
18191;DHT22;47004;51.366;12.348;2022-09-09T06:13:45;14.60;99.90
18191;DHT22;47004;51.366;12.348;2022-09-09T06:15:51;14.60;99.90
18191;DHT22;47004;51.366;12.348;2022-09-09T06:17:54;14.60;99.90
18191;DHT22;47004;51.366;12.348;2022-09-09T06:19:56;14.70;99.90
18191;DHT22;47004;51.366;12.348;2022-09-09T06:22:00;14.70;99.90
18191;DHT22;47004;51.366;12.348;2022-09-09T06:24:02;14.80;99.90
18191;DHT22;47004;51.366;12.348;2022-09-09T06:26:07;14.80;99.90
18191;DHT22;47004;51.366;12.348;2022-09-09T06:28:09;14.80;99.90
18191;DHT22;47004;51.366;12.348;2022-09-09T06:30:11;14.90;99.90
18191;DHT22;47004;51.366;12.348;2022-09-09T06:32:14;14.90;99.90
18191;DHT22;47004;51.366;12.348;2022-09-09T06:34:16;15.00;99.90
18191;DHT22;47004;51.366;12.348;2022-09-09T06:36:19;15.00;99.90
18191;DHT22;47004;51.366;12.348;2022-09-09T06:38:23;15.10;99.90
18191;DHT22;47004;51.366;12.348;2022-09-09T06:40:25;15.10;99.90
18191;DHT22;47004;51.366;12.348;2022-09-09T06:42:27;15.10;99.90
18191;DHT22;47004;51.366;12.348;2022-09-09T06:44:29;15.20;99.90
18191;DHT22;47004;51.366;12.348;2022-09-09T06:46:32;15.20;99.90
18191;DHT22;47004;51.366;12.348;2022-09-09T06:48:36;15.20;99.90
18191;DHT22;47004;51.366;12.348;2022-09-09T06:50:38;15.30;99.90
18191;DHT22;47004;51.366;12.348;2022-09-09T06:52:40;15.40;99.90
18191;DHT22;47004;51.366;12.348;2022-09-09T06:54:43;15.40;99.90
18191;DHT22;47004;51.366;12.348;2022-09-09T06:56:45;15.40;99.90
18191;DHT22;47004;51.366;12.348;2022-09-09T06:58:47;15.50;99.90
18191;DHT22;47004;51.366;12.348;2022-09-09T07:00:49;15.50;99.90
18191;DHT22;47004;51.366;12.348;2022-09-09T07:02:51;15.50;99.90
18191;DHT22;47004;51.366;12.348;2022-09-09T07:04:53;15.60;99.90
18191;DHT22;47004;51.366;12.348;2022-09-09T07:06:55;15.60;99.90
18191;DHT22;47004;51.366;12.348;2022-09-09T07:08:58;15.60;99.90
18191;DHT22;47004;51.366;12.348;2022-09-09T07:11:04;15.70;99.90
18191;DHT22;47004;51.366;12.348;2022-09-09T07:13:06;15.70;99.90
18191;DHT22;47004;51.366;12.348;2022-09-09T07:15:09;15.80;99.90
18191;DHT22;47004;51.366;12.348;2022-09-09T07:17:14;15.80;99.90
18191;DHT22;47004;51.366;12.348;2022-09-09T07:19:16;15.90;99.90
18191;DHT22;47004;51.366;12.348;2022-09-09T07:21:18;15.90;99.90
18191;DHT22;47004;51.366;12.348;2022-09-09T07:23:23;16.00;99.90
18191;DHT22;47004;51.366;12.348;2022-09-09T07:25:25;16.00;99.90
18191;DHT22;47004;51.366;12.348;2022-09-09T07:27:31;16.00;99.90
18191;DHT22;47004;51.366;12.348;2022-09-09T07:29:33;16.10;99.90
18191;DHT22;47004;51.366;12.348;2022-09-09T07:31:37;16.10;99.90
18191;DHT22;47004;51.366;12.348;2022-09-09T07:33:40;16.10;99.90
18191;DHT22;47004;51.366;12.348;2022-09-09T07:35:42;16.10;99.90
18191;DHT22;47004;51.366;12.348;2022-09-09T07:37:44;16.20;99.90
18191;DHT22;47004;51.366;12.348;2022-09-09T07:39:46;16.20;99.90
18191;DHT22;47004;51.366;12.348;2022-09-09T07:41:48;16.20;99.90
18191;DHT22;47004;51.366;12.348;2022-09-09T07:43:53;16.30;99.90
18191;DHT22;47004;51.366;12.348;2022-09-09T07:45:57;16.30;99.90
18191;DHT22;47004;51.366;12.348;2022-09-09T07:47:59;16.40;99.90
18191;DHT22;47004;51.366;12.348;2022-09-09T07:50:01;16.40;99.90
18191;DHT22;47004;51.366;12.348;2022-09-09T07:52:03;16.50;99.90
18191;DHT22;47004;51.366;12.348;2022-09-09T07:54:06;16.50;99.90
18191;DHT22;47004;51.366;12.348;2022-09-09T07:56:11;16.60;99.90
18191;DHT22;47004;51.366;12.348;2022-09-09T07:58:13;16.60;99.90
18191;DHT22;47004;51.366;12.348;2022-09-09T08:00:17;16.70;99.90
18191;DHT22;47004;51.366;12.348;2022-09-09T08:02:19;16.80;99.90
18191;DHT22;47004;51.366;12.348;2022-09-09T08:04:22;16.90;99.90
18191;DHT22;47004;51.366;12.348;2022-09-09T08:06:25;16.90;99.90
18191;DHT22;47004;51.366;12.348;2022-09-09T08:08:28;17.00;99.90
18191;DHT22;47004;51.366;12.348;2022-09-09T08:10:30;17.10;99.90
18191;DHT22;47004;51.366;12.348;2022-09-09T08:12:32;17.10;99.90
18191;DHT22;47004;51.366;12.348;2022-09-09T08:14:34;17.20;99.90
18191;DHT22;47004;51.366;12.348;2022-09-09T08:16:39;17.30;99.90
18191;DHT22;47004;51.366;12.348;2022-09-09T08:18:41;17.40;99.90
18191;DHT22;47004;51.366;12.348;2022-09-09T08:20:44;17.60;99.90
18191;DHT22;47004;51.366;12.348;2022-09-09T08:22:46;17.70;99.90
18191;DHT22;47004;51.366;12.348;2022-09-09T08:24:48;17.70;99.90
18191;DHT22;47004;51.366;12.348;2022-09-09T08:26:50;17.80;99.90
18191;DHT22;47004;51.366;12.348;2022-09-09T08:28:54;17.90;99.90
18191;DHT22;47004;51.366;12.348;2022-09-09T08:31:05;17.90;99.90
18191;DHT22;47004;51.366;12.348;2022-09-09T08:33:10;17.90;99.90
18191;DHT22;47004;51.366;12.348;2022-09-09T08:35:12;17.90;99.90
18191;DHT22;47004;51.366;12.348;2022-09-09T08:37:14;17.90;99.90
18191;DHT22;47004;51.366;12.348;2022-09-09T08:39:18;17.90;99.90
18191;DHT22;47004;51.366;12.348;2022-09-09T08:41:59;18.00;99.90
18191;DHT22;47004;51.366;12.348;2022-09-09T08:44:06;18.00;99.90
18191;DHT22;47004;51.366;12.348;2022-09-09T08:46:12;18.00;99.90
18191;DHT22;47004;51.366;12.348;2022-09-09T08:48:29;18.20;99.90
18191;DHT22;47004;51.366;12.348;2022-09-09T08:50:35;18.10;99.90
18191;DHT22;47004;51.366;12.348;2022-09-09T08:52:41;18.10;99.90
18191;DHT22;47004;51.366;12.348;2022-09-09T08:54:46;18.20;99.90
18191;DHT22;47004;51.366;12.348;2022-09-09T08:56:48;18.20;99.90
18191;DHT22;47004;51.366;12.348;2022-09-09T08:58:54;18.30;99.90
18191;DHT22;47004;51.366;12.348;2022-09-09T09:01:09;18.30;99.90
18191;DHT22;47004;51.366;12.348;2022-09-09T09:03:25;18.40;99.90
18191;DHT22;47004;51.366;12.348;2022-09-09T09:05:35;18.50;99.90
18191;DHT22;47004;51.366;12.348;2022-09-09T09:07:50;18.50;99.90
18191;DHT22;47004;51.366;12.348;2022-09-09T09:09:59;18.60;99.90
18191;DHT22;47004;51.366;12.348;2022-09-09T09:12:12;18.60;99.90
18191;DHT22;47004;51.366;12.348;2022-09-09T09:14:19;18.70;99.90
18191;DHT22;47004;51.366;12.348;2022-09-09T09:16:29;18.70;99.90
18191;DHT22;47004;51.366;12.348;2022-09-09T09:18:34;18.80;99.90
18191;DHT22;47004;51.366;12.348;2022-09-09T09:20:44;18.90;99.90
18191;DHT22;47004;51.366;12.348;2022-09-09T09:22:49;18.90;99.90
18191;DHT22;47004;51.366;12.348;2022-09-09T09:24:53;19.00;99.90
18191;DHT22;47004;51.366;12.348;2022-09-09T09:26:56;19.00;99.90
18191;DHT22;47004;51.366;12.348;2022-09-09T09:28:59;19.10;99.90
18191;DHT22;47004;51.366;12.348;2022-09-09T09:31:05;19.20;99.90
18191;DHT22;47004;51.366;12.348;2022-09-09T09:33:14;19.30;99.90
18191;DHT22;47004;51.366;12.348;2022-09-09T09:35:18;19.40;99.90
18191;DHT22;47004;51.366;12.348;2022-09-09T09:37:24;19.50;99.90
18191;DHT22;47004;51.366;12.348;2022-09-09T09:39:30;19.70;99.90
18191;DHT22;47004;51.366;12.348;2022-09-09T09:41:38;19.80;99.90
18191;DHT22;47004;51.366;12.348;2022-09-09T09:43:41;19.90;99.90
18191;DHT22;47004;51.366;12.348;2022-09-09T09:45:44;20.00;99.90
18191;DHT22;47004;51.366;12.348;2022-09-09T09:47:46;20.10;99.90
18191;DHT22;47004;51.366;12.348;2022-09-09T09:49:52;20.20;99.90
18191;DHT22;47004;51.366;12.348;2022-09-09T09:52:00;20.30;99.90
18191;DHT22;47004;51.366;12.348;2022-09-09T09:54:18;20.40;99.90
18191;DHT22;47004;51.366;12.348;2022-09-09T09:56:27;20.50;99.90
18191;DHT22;47004;51.366;12.348;2022-09-09T09:58:31;20.50;99.90
18191;DHT22;47004;51.366;12.348;2022-09-09T10:00:34;20.50;99.90
18191;DHT22;47004;51.366;12.348;2022-09-09T10:02:39;20.60;99.90
18191;DHT22;47004;51.366;12.348;2022-09-09T10:04:44;20.60;99.90
18191;DHT22;47004;51.366;12.348;2022-09-09T10:06:47;20.60;99.90
18191;DHT22;47004;51.366;12.348;2022-09-09T10:08:50;20.60;99.90
18191;DHT22;47004;51.366;12.348;2022-09-09T10:11:10;20.60;99.90
18191;DHT22;47004;51.366;12.348;2022-09-09T10:13:25;20.70;99.90
18191;DHT22;47004;51.366;12.348;2022-09-09T10:15:35;20.70;99.90
18191;DHT22;47004;51.366;12.348;2022-09-09T10:17:56;20.80;99.90
18191;DHT22;47004;51.366;12.348;2022-09-09T10:20:19;20.90;99.90
18191;DHT22;47004;51.366;12.348;2022-09-09T10:22:27;21.00;99.90
18191;DHT22;47004;51.366;12.348;2022-09-09T10:24:56;21.00;99.90
18191;DHT22;47004;51.366;12.348;2022-09-09T10:27:08;21.00;99.90
18191;DHT22;47004;51.366;12.348;2022-09-09T10:29:28;21.10;99.90
18191;DHT22;47004;51.366;12.348;2022-09-09T10:31:40;21.10;99.90
18191;DHT22;47004;51.366;12.348;2022-09-09T10:33:49;21.10;99.90
18191;DHT22;47004;51.366;12.348;2022-09-09T10:35:57;21.10;99.90
18191;DHT22;47004;51.366;12.348;2022-09-09T10:38:15;21.20;99.90
18191;DHT22;47004;51.366;12.348;2022-09-09T10:40:28;21.20;99.90
18191;DHT22;47004;51.366;12.348;2022-09-09T10:42:32;21.30;99.90
18191;DHT22;47004;51.366;12.348;2022-09-09T10:44:59;21.30;99.90
18191;DHT22;47004;51.366;12.348;2022-09-09T10:47:20;21.30;99.90
18191;DHT22;47004;51.366;12.348;2022-09-09T10:49:42;21.30;99.90
18191;DHT22;47004;51.366;12.348;2022-09-09T10:51:57;21.30;99.90
18191;DHT22;47004;51.366;12.348;2022-09-09T10:54:13;21.30;99.90
18191;DHT22;47004;51.366;12.348;2022-09-09T10:56:21;21.30;99.90
18191;DHT22;47004;51.366;12.348;2022-09-09T10:58:30;21.40;99.90
18191;DHT22;47004;51.366;12.348;2022-09-09T11:00:40;21.40;99.90
18191;DHT22;47004;51.366;12.348;2022-09-09T11:02:43;21.50;99.90
18191;DHT22;47004;51.366;12.348;2022-09-09T11:04:49;21.60;99.90
18191;DHT22;47004;51.366;12.348;2022-09-09T11:06:55;21.60;99.90
18191;DHT22;47004;51.366;12.348;2022-09-09T11:08:58;21.60;99.90
18191;DHT22;47004;51.366;12.348;2022-09-09T11:11:04;21.70;99.90
18191;DHT22;47004;51.366;12.348;2022-09-09T11:13:14;21.70;99.90
18191;DHT22;47004;51.366;12.348;2022-09-09T11:15:22;21.70;99.90
18191;DHT22;47004;51.366;12.348;2022-09-09T11:17:30;21.80;99.90
18191;DHT22;47004;51.366;12.348;2022-09-09T11:19:39;21.80;99.90
18191;DHT22;47004;51.366;12.348;2022-09-09T11:21:45;21.90;99.90
18191;DHT22;47004;51.366;12.348;2022-09-09T11:23:50;22.00;99.90
18191;DHT22;47004;51.366;12.348;2022-09-09T11:25:56;22.10;99.90
18191;DHT22;47004;51.366;12.348;2022-09-09T11:28:16;22.30;99.90
18191;DHT22;47004;51.366;12.348;2022-09-09T11:30:26;22.50;99.90
18191;DHT22;47004;51.366;12.348;2022-09-09T11:32:45;22.60;99.90
18191;DHT22;47004;51.366;12.348;2022-09-09T11:34:56;22.80;96.20
18191;DHT22;47004;51.366;12.348;2022-09-09T11:37:21;23.00;98.60
18191;DHT22;47004;51.366;12.348;2022-09-09T11:39:53;23.20;98.40
18191;DHT22;47004;51.366;12.348;2022-09-09T11:42:06;23.40;94.30
18191;DHT22;47004;51.366;12.348;2022-09-09T11:44:13;23.70;86.70
18191;DHT22;47004;51.366;12.348;2022-09-09T11:46:20;23.80;75.60
18191;DHT22;47004;51.366;12.348;2022-09-09T11:48:28;23.70;75.80
18191;DHT22;47004;51.366;12.348;2022-09-09T11:50:33;23.70;77.30
18191;DHT22;47004;51.366;12.348;2022-09-09T11:52:37;23.80;75.60
18191;DHT22;47004;51.366;12.348;2022-09-09T11:54:46;23.80;78.90
18191;DHT22;47004;51.366;12.348;2022-09-09T11:56:48;23.90;77.80
18191;DHT22;47004;51.366;12.348;2022-09-09T11:58:56;24.10;68.00
18191;DHT22;47004;51.366;12.348;2022-09-09T12:01:00;24.20;73.00
18191;DHT22;47004;51.366;12.348;2022-09-09T12:03:02;24.40;74.90
18191;DHT22;47004;51.366;12.348;2022-09-09T12:05:07;24.60;80.70
18191;DHT22;47004;51.366;12.348;2022-09-09T12:07:30;24.80;69.80
18191;DHT22;47004;51.366;12.348;2022-09-09T12:09:46;25.00;74.60
18191;DHT22;47004;51.366;12.348;2022-09-09T12:11:49;25.20;66.20
18191;DHT22;47004;51.366;12.348;2022-09-09T12:13:55;25.30;67.20
18191;DHT22;47004;51.366;12.348;2022-09-09T12:15:58;25.50;61.80
18191;DHT22;47004;51.366;12.348;2022-09-09T12:18:01;25.60;66.10
18191;DHT22;47004;51.366;12.348;2022-09-09T12:20:11;25.70;60.30
18191;DHT22;47004;51.366;12.348;2022-09-09T12:22:23;25.90;61.30
18191;DHT22;47004;51.366;12.348;2022-09-09T12:24:34;26.10;58.40
18191;DHT22;47004;51.366;12.348;2022-09-09T12:26:42;26.30;58.60
18191;DHT22;47004;51.366;12.348;2022-09-09T12:28:53;26.50;55.20
18191;DHT22;47004;51.366;12.348;2022-09-09T12:31:05;26.50;54.00
18191;DHT22;47004;51.366;12.348;2022-09-09T12:33:13;26.70;56.00
18191;DHT22;47004;51.366;12.348;2022-09-09T12:35:21;26.80;52.40
18191;DHT22;47004;51.366;12.348;2022-09-09T12:37:29;26.90;51.40
18191;DHT22;47004;51.366;12.348;2022-09-09T12:39:34;27.00;51.90
18191;DHT22;47004;51.366;12.348;2022-09-09T12:41:37;27.10;51.10
18191;DHT22;47004;51.366;12.348;2022-09-09T12:43:39;27.30;50.80
18191;DHT22;47004;51.366;12.348;2022-09-09T12:45:41;27.50;49.40
18191;DHT22;47004;51.366;12.348;2022-09-09T12:47:47;27.70;48.30
18191;DHT22;47004;51.366;12.348;2022-09-09T12:49:51;27.90;49.30
18191;DHT22;47004;51.366;12.348;2022-09-09T12:51:53;27.90;49.50
18191;DHT22;47004;51.366;12.348;2022-09-09T12:53:58;28.00;48.10
18191;DHT22;47004;51.366;12.348;2022-09-09T12:56:02;28.00;46.40
18191;DHT22;47004;51.366;12.348;2022-09-09T12:58:06;28.00;47.00
18191;DHT22;47004;51.366;12.348;2022-09-09T13:00:14;28.00;49.20
18191;DHT22;47004;51.366;12.348;2022-09-09T13:02:19;28.00;47.00
18191;DHT22;47004;51.366;12.348;2022-09-09T13:04:21;28.00;45.50
18191;DHT22;47004;51.366;12.348;2022-09-09T13:06:26;28.20;46.50